»·PEaware :: SWA320 KCOS-KPHX

SWA320 :: KCOS-KPHX

FLIGHT INFORMATION

Flight Status: Arrived
Operator:
Southwest Airlines
More flights by this operator :: More flights under this callsign
Pilot: Steve F. (26981)
Aircraft: BOEING 737-900
(B739)
More flights by this aircraft type
Origin: KCOS City Of Colorado Springs Mun
United States
Destination: KPHX Phoenix Sky Harbor Intl
United States
More flights between these airports :: More routes between these airports
Route: COS6 BRK V83 PUB ALS J102 GUP EAGUL6
File this flight plan on PilotEdge
Remarks:
Altitude:
(Current/Filed)
36,000ft
Speed:
(Current/Filed)
430kts
Departed: 12-Sep-22 01:37 PM
Arrived: 12-Sep-22 02:57 PM
Distance/Time
Traveled:
478nm/1:19
Distance/Time
To Go:
Arrived

Flight Plot

Page will automatically refresh every two minutes.

Flight plan parsing failed; only flown route is shown


Map Options




Map Legend


Flown Route
Filed Route
Departure Airport
Arrival Airport
Navaid (VOR, NDB)
Fix

Horizontal Profiles

Position Reports

Time Latitude Longitude Heading Altitude Ground
Speed
12-Sep-22 13:14 38.798047 -104.698508 136 6195ft 0kts
12-Sep-22 13:15 38.798047 -104.698508 136 6195ft 0kts
12-Sep-22 13:16 38.798047 -104.698508 136 6195ft 0kts
12-Sep-22 13:17 38.798047 -104.698508 136 6195ft 0kts
12-Sep-22 13:18 38.798047 -104.698508 136 6195ft 0kts
12-Sep-22 13:19 38.798047 -104.698508 136 6195ft 0kts
12-Sep-22 13:20 38.798047 -104.698508 136 6195ft 0kts
12-Sep-22 13:21 38.798047 -104.698508 136 6195ft 0kts
12-Sep-22 13:22 38.798047 -104.698508 136 6195ft 0kts
12-Sep-22 13:23 38.798047 -104.698508 136 6195ft 0kts
12-Sep-22 13:24 38.798311 -104.698824 136 6195ft 2kts
12-Sep-22 13:25 38.798436 -104.699043 107 6195ft 0kts
12-Sep-22 13:26 38.798436 -104.699043 107 6195ft 0kts
12-Sep-22 13:27 38.798436 -104.699043 107 6195ft 0kts
12-Sep-22 13:28 38.798436 -104.699043 107 6195ft 0kts
12-Sep-22 13:29 38.799952 -104.698160 41 6195ft 17kts
12-Sep-22 13:30 38.802710 -104.695284 89 6195ft 14kts
12-Sep-22 13:31 38.802743 -104.690054 89 6195ft 17kts
12-Sep-22 13:32 38.798974 -104.687795 180 6195ft 27kts
12-Sep-22 13:33 38.790975 -104.687804 180 6195ft 28kts
12-Sep-22 13:34 38.781721 -104.687813 179 6195ft 33kts
12-Sep-22 13:35 38.779499 -104.685788 0 6195ft 8kts
12-Sep-22 13:36 38.806825 -104.685754 0 6216ft 195kts
12-Sep-22 13:37 38.866882 -104.684978 13 8677ft 241kts
12-Sep-22 13:38 38.896786 -104.606778 95 11025ft 286kts
12-Sep-22 13:39 38.875631 -104.507552 131 13709ft 312kts
12-Sep-22 13:40 38.793489 -104.466075 168 15916ft 348kts
12-Sep-22 13:41 38.688007 -104.436019 168 16011ft 413kts
12-Sep-22 13:42 38.574101 -104.411282 182 17134ft 419kts
12-Sep-22 13:43 38.456000 -104.421480 183 19187ft 432kts
12-Sep-22 13:44 38.334584 -104.428344 189 21001ft 443kts
12-Sep-22 13:45 38.235030 -104.514590 230 22555ft 446kts
12-Sep-22 13:46 38.154616 -104.636661 230 23927ft 455kts
12-Sep-22 13:47 38.071630 -104.759980 230 25181ft 463kts
12-Sep-22 13:48 37.987684 -104.885233 231 26323ft 469kts
12-Sep-22 13:49 37.902268 -105.011341 231 27342ft 474kts
12-Sep-22 13:50 37.815675 -105.138552 231 28322ft 476kts
12-Sep-22 13:51 37.729602 -105.264502 231 29565ft 472kts
12-Sep-22 13:52 37.643868 -105.389477 232 30703ft 468kts
12-Sep-22 13:53 37.558732 -105.513161 232 31733ft 466kts
12-Sep-22 13:54 37.474120 -105.635965 232 32726ft 463kts
12-Sep-22 13:55 37.389382 -105.757769 232 33623ft 461kts
12-Sep-22 13:56 37.308783 -105.881921 237 34398ft 457kts
12-Sep-22 13:57 37.233640 -106.011162 237 35031ft 458kts
12-Sep-22 13:58 37.158032 -106.139027 237 35672ft 456kts
12-Sep-22 13:59 37.082711 -106.267107 237 36202ft 457kts
12-Sep-22 14:00 37.007018 -106.394649 237 36472ft 457kts
12-Sep-22 14:01 36.931047 -106.521985 237 36499ft 457kts
12-Sep-22 14:02 36.854942 -106.649041 237 36481ft 457kts
12-Sep-22 14:03 36.778830 -106.775632 237 36361ft 456kts
12-Sep-22 14:04 36.706203 -106.895993 236 36409ft 456kts
12-Sep-22 14:05 36.629543 -107.023110 236 36435ft 456kts
12-Sep-22 14:06 36.553092 -107.148716 236 36357ft 456kts
12-Sep-22 14:07 36.476219 -107.274405 236 36311ft 456kts
12-Sep-22 14:08 36.399451 -107.399921 236 36304ft 456kts
12-Sep-22 14:09 36.322703 -107.524874 236 36290ft 456kts
12-Sep-22 14:10 36.245553 -107.649584 236 36253ft 456kts
12-Sep-22 14:11 36.168326 -107.774029 235 36241ft 456kts
12-Sep-22 14:12 36.090730 -107.898398 235 36236ft 456kts
12-Sep-22 14:13 36.013420 -108.021880 235 36255ft 456kts
12-Sep-22 14:14 35.936067 -108.146335 235 36264ft 456kts
12-Sep-22 14:15 35.858605 -108.269780 235 36269ft 456kts
12-Sep-22 14:16 35.780837 -108.393155 235 36276ft 456kts
12-Sep-22 14:17 35.702667 -108.516720 235 36283ft 456kts
12-Sep-22 14:18 35.624879 -108.639783 235 36288ft 456kts
12-Sep-22 14:19 35.546551 -108.762423 234 36289ft 456kts
12-Sep-22 14:20 35.467615 -108.884529 231 36290ft 458kts
12-Sep-22 14:21 35.379793 -108.997561 229 36291ft 458kts
12-Sep-22 14:23 35.291691 -109.110554 229 36285ft 458kts
12-Sep-22 14:24 35.204047 -109.223656 229 36300ft 458kts
12-Sep-22 14:25 35.116287 -109.336583 229 36300ft 459kts
12-Sep-22 14:26 35.028378 -109.449455 229 36297ft 458kts
12-Sep-22 14:27 34.940268 -109.561705 228 36274ft 458kts
12-Sep-22 14:28 34.851799 -109.673915 228 36269ft 459kts
12-Sep-22 14:29 34.763701 -109.786117 228 36263ft 459kts
12-Sep-22 14:30 34.688476 -109.909235 245 36257ft 453kts
12-Sep-22 14:31 34.636200 -110.048344 247 36255ft 453kts
12-Sep-22 14:32 34.584204 -110.188789 247 34959ft 456kts
12-Sep-22 14:33 34.532304 -110.326464 246 32605ft 440kts
12-Sep-22 14:34 34.482402 -110.458936 245 30311ft 427kts
12-Sep-22 14:35 34.433566 -110.587951 244 28009ft 415kts
12-Sep-22 14:36 34.385900 -110.712758 243 25876ft 401kts
12-Sep-22 14:37 34.330386 -110.826343 228 23822ft 384kts
12-Sep-22 14:38 34.258784 -110.919255 225 21823ft 372kts
12-Sep-22 14:39 34.189110 -111.008889 225 19919ft 358kts
12-Sep-22 14:40 34.123780 -111.092936 224 18770ft 330kts
12-Sep-22 14:41 34.061765 -111.172930 224 17066ft 323kts
12-Sep-22 14:42 34.000588 -111.251266 224 15361ft 316kts
12-Sep-22 14:43 33.941001 -111.327279 224 13950ft 303kts
12-Sep-22 14:44 33.885082 -111.398391 222 12697ft 286kts
12-Sep-22 14:45 33.821875 -111.454973 213 11039ft 282kts
12-Sep-22 14:45 33.770865 -111.498769 214 10176ft 264kts
12-Sep-22 14:47 33.704099 -111.556087 214 9146ft 245kts
12-Sep-22 14:48 33.648460 -111.603750 214 8321ft 245kts
12-Sep-22 14:49 33.593230 -111.650082 214 7126ft 240kts
12-Sep-22 14:50 33.539025 -111.695595 214 6019ft 236kts
12-Sep-22 14:50 33.494518 -111.733140 214 5100ft 232kts
12-Sep-22 14:51 33.447660 -111.784425 230 4311ft 223kts
12-Sep-22 14:53 33.428564 -111.854382 269 3510ft 183kts
12-Sep-22 14:54 33.428799 -111.914904 270 2531ft 177kts
12-Sep-22 14:55 33.428805 -111.968742 270 1695ft 150kts
12-Sep-22 14:55 33.428831 -112.008563 269 1144ft 129kts
12-Sep-22 14:56 33.429934 -112.020579 89 1143ft 15kts
12-Sep-22 14:57 33.429911 -112.011666 89 1143ft 34kts
12-Sep-22 14:59 33.429938 -111.998132 89 1143ft 34kts
12-Sep-22 14:59 33.432396 -111.995541 334 1143ft 16kts
12-Sep-22 15:00 33.433692 -111.996129 306 1143ft 0kts
12-Sep-22 15:01 33.433692 -111.996129 306 1143ft 0kts
12-Sep-22 15:02 33.433692 -111.996129 306 1143ft 0kts
12-Sep-22 15:03 33.433692 -111.996129 306 1143ft 0kts
12-Sep-22 15:04 33.433692 -111.996129 306 1143ft 0kts
12-Sep-22 15:05 33.433692 -111.996129 306 1143ft 0kts
12-Sep-22 15:06 33.433692 -111.996129 306 1143ft 0kts
12-Sep-22 15:07 33.433692 -111.996129 306 1143ft 0kts
12-Sep-22 15:08 33.433692 -111.996129 306 1143ft 0kts
12-Sep-22 15:09 33.433692 -111.996129 306 1143ft 0kts
12-Sep-22 15:10 33.433692 -111.996129 306 1143ft 0kts

Navigation Log

Ident Type
Flight plan parsing failed, navigation log unavailable